Time;durP1;ratioP1;P1;durP2;ratioP2;P2;SDS_P1;SDS_P2;PMS_P1;PMS_P2;Temp;Humidity;BMP_temperature;BMP_pressure;BME280_temperature;BME280_humidity;BME280_pressure;Samples;Min_cycle;Max_cycle;Signal;HPM_P1;HPM_P2
2023/06/19 00:00:48;;;;;;;7.40;4.03;;;;;;;10.16;71.23;95371.38;6243465;28;20053;-66
2023/06/19 00:03:56;;;;;;;9.43;4.13;;;;;;;10.21;70.69;95370.03;6244380;28;20151;-67
2023/06/19 00:06:59;;;;;;;7.93;4.22;;;;;;;10.18;70.64;95365.03;6248236;28;20048;-67
2023/06/19 00:10:04;;;;;;;8.73;3.80;;;;;;;10.16;70.74;95356.44;6242108;28;20119;-67
2023/06/19 00:13:07;;;;;;;6.05;3.35;;;;;;;10.16;70.37;95351.19;6235648;28;20431;-67
2023/06/19 00:16:09;;;;;;;7.07;3.30;;;;;;;10.21;70.34;95358.69;6226621;28;20132;-66
2023/06/19 00:19:11;;;;;;;5.70;3.35;;;;;;;10.20;69.94;95346.50;6212258;28;20163;-66
2023/06/19 00:22:18;;;;;;;5.78;4.05;;;;;;;10.21;70.22;95348.16;6247363;28;20038;-68
2023/06/19 00:25:26;;;;;;;6.05;3.63;;;;;;;10.25;70.14;95360.91;6246103;28;20462;-66
2023/06/19 00:28:28;;;;;;;5.10;3.47;;;;;;;10.28;69.78;95358.03;6246771;28;20049;-67
2023/06/19 00:31:37;;;;;;;7.18;3.97;;;;;;;10.29;69.60;95351.81;6247384;28;20042;-67
2023/06/19 00:34:42;;;;;;;6.68;3.75;;;;;;;10.32;69.35;95348.91;6274040;28;20528;-67
2023/06/19 00:37:44;;;;;;;7.20;4.03;;;;;;;10.39;69.15;95340.47;6275148;28;20446;-67
2023/06/19 00:40:45;;;;;;;4.60;3.60;;;;;;;10.35;69.22;95345.19;6271876;28;20032;-68
2023/06/19 00:43:49;;;;;;;4.10;3.58;;;;;;;10.41;69.29;95354.31;6270665;28;20497;-67
2023/06/19 00:47:02;;;;;;;5.68;3.70;;;;;;;10.47;68.80;95353.78;6270874;28;20514;-67
2023/06/19 00:50:04;;;;;;;4.10;3.10;;;;;;;10.59;68.02;95360.59;6252910;28;20076;-66
2023/06/19 00:53:07;;;;;;;4.90;3.53;;;;;;;10.59;68.03;95355.34;6271337;28;20049;-67
2023/06/19 00:56:11;;;;;;;5.18;3.58;;;;;;;10.56;67.99;95355.63;6270783;28;20049;-68
2023/06/19 00:59:20;;;;;;;6.22;4.18;;;;;;;10.47;68.14;95351.16;6269729;28;20049;-67
2023/06/19 01:02:26;;;;;;;4.18;3.67;;;;;;;10.41;68.05;95349.06;6270757;28;20041;-65
2023/06/19 01:05:33;;;;;;;4.75;3.72;;;;;;;10.21;68.49;95342.91;6271454;28;20048;-67
2023/06/19 01:08:50;;;;;;;7.80;5.05;;;;;;;9.98;69.41;95350.16;6272986;28;20052;-67
2023/06/19 01:12:06;;;;;;;5.57;3.85;;;;;;;9.70;70.56;95349.09;6271072;28;20044;-67
2023/06/19 01:15:13;;;;;;;6.78;4.18;;;;;;;9.69;70.50;95327.25;6253055;28;20516;-66
2023/06/19 01:18:20;;;;;;;5.57;4.28;;;;;;;9.48;71.18;95329.06;6271020;28;20037;-66
2023/06/19 01:21:27;;;;;;;6.25;4.43;;;;;;;9.44;71.36;95328.50;6271011;28;20553;-64
2023/06/19 01:24:31;;;;;;;8.30;4.30;;;;;;;9.36;71.46;95318.66;6253981;28;20094;-64
2023/06/19 01:27:34;;;;;;;5.88;4.25;;;;;;;9.37;71.36;95316.84;6270547;28;20079;-65
2023/06/19 01:30:43;;;;;;;4.55;3.72;;;;;;;9.36;71.06;95326.53;6270979;28;20032;-66
2023/06/19 01:33:46;;;;;;;6.07;4.50;;;;;;;9.43;70.66;95313.72;6269297;28;20044;-66
2023/06/19 01:36:51;;;;;;;6.75;4.90;;;;;;;9.44;70.45;95313.59;6270785;28;20052;-65
2023/06/19 01:39:54;;;;;;;6.82;4.32;;;;;;;9.51;70.17;95318.31;6271116;28;20041;-66
2023/06/19 01:42:55;;;;;;;6.10;4.85;;;;;;;9.47;69.80;95307.25;6271213;28;20040;-66
2023/06/19 01:46:01;;;;;;;5.53;4.40;;;;;;;9.52;69.68;95320.00;6270096;28;20079;-67
2023/06/19 01:49:06;;;;;;;;;;;;;;;9.54;69.61;95328.53;6270780;28;20037;-66
2023/06/19 01:52:08;;;;;;;7.20;4.13;;;;;;;9.44;69.71;95316.22;6270668;28;20437;-65
2023/06/19 01:55:10;;;;;;;6.78;4.32;;;;;;;9.44;70.06;95324.09;6268027;28;20045;-66
2023/06/19 01:58:17;;;;;;;5.47;3.90;;;;;;;9.48;69.84;95315.94;6270491;28;20041;-65
2023/06/19 02:01:20;;;;;;;5.47;4.15;;;;;;;9.47;69.67;95316.91;6269956;28;20136;-66
2023/06/19 02:04:24;;;;;;;5.75;4.03;;;;;;;9.56;69.29;95316.13;6269604;28;20052;-66
2023/06/19 02:07:26;;;;;;;7.05;4.70;;;;;;;9.72;68.83;95316.47;6269250;28;20139;-66
2023/06/19 02:10:29;;;;;;;;;;;;;;;9.86;67.92;95317.91;6270170;28;20071;-66
2023/06/19 02:13:37;;;;;;;8.23;4.53;;;;;;;9.88;67.72;95314.19;6268636;28;19921;-65
2023/06/19 02:16:43;;;;;;;7.32;4.75;;;;;;;9.85;67.73;95310.97;6258913;28;20534;-66
2023/06/19 02:19:49;;;;;;;6.00;4.32;;;;;;;9.86;67.78;95312.66;6267734;28;20175;-66
2023/06/19 02:23:13;;;;;;;7.28;4.80;;;;;;;9.95;67.10;95317.09;6251581;28;20127;-64
2023/06/19 02:26:17;;;;;;;7.25;4.68;;;;;;;9.94;66.84;95322.50;6268160;28;20044;-66
2023/06/19 02:29:18;;;;;;;6.25;4.10;;;;;;;9.92;66.84;95321.81;6267032;28;20391;-65
2023/06/19 02:32:23;;;;;;;6.32;3.88;;;;;;;10.04;66.49;95328.63;6269302;28;20063;-66
2023/06/19 02:35:27;;;;;;;5.75;4.00;;;;;;;10.07;66.02;95316.03;6268541;28;20104;-66
2023/06/19 02:38:31;;;;;;;4.90;3.97;;;;;;;10.25;65.16;95313.59;6268815;28;20139;-66
2023/06/19 02:41:35;;;;;;;7.03;4.72;;;;;;;10.27;64.82;95305.59;6269037;28;20109;-65
2023/06/19 02:44:37;;;;;;;5.55;3.90;;;;;;;10.54;63.98;95313.66;6268164;28;20053;-65
2023/06/19 02:47:38;;;;;;;6.50;3.78;;;;;;;10.59;63.98;95326.41;6269000;28;20524;-65
2023/06/19 02:50:42;;;;;;;7.40;4.32;;;;;;;10.63;63.94;95325.16;6288506;28;20045;-65
2023/06/19 02:53:47;;;;;;;5.70;4.05;;;;;;;10.67;63.57;95329.19;6293222;28;20047;-66
2023/06/19 02:56:51;;;;;;;5.53;4.18;;;;;;;10.81;63.30;95334.97;6293748;28;20036;-65
2023/06/19 02:59:57;;;;;;;7.03;3.95;;;;;;;11.00;62.21;95343.69;6291685;28;20056;-65
2023/06/19 03:03:04;;;;;;;7.85;4.60;;;;;;;11.00;62.07;95334.97;6268747;28;20041;-66
2023/06/19 03:06:06;;;;;;;5.45;4.30;;;;;;;10.98;62.42;95343.03;6275031;28;20190;-69
2023/06/19 03:09:15;;;;;;;4.30;3.63;;;;;;;11.07;62.38;95341.34;6293226;28;20048;-65
2023/06/19 03:12:21;;;;;;;6.07;3.95;;;;;;;11.08;62.46;95337.75;6293338;28;20538;-65
2023/06/19 03:15:26;;;;;;;6.25;3.78;;;;;;;11.15;62.49;95338.88;6293499;28;20056;-65
2023/06/19 03:18:29;;;;;;;4.60;3.72;;;;;;;11.36;61.94;95329.94;6284842;28;20041;-66
2023/06/19 03:21:35;;;;;;;5.43;3.97;;;;;;;11.66;61.00;95324.47;6256995;28;20040;-66
2023/06/19 03:24:41;;;;;;;7.63;4.43;;;;;;;11.90;60.60;95339.78;6287710;28;20048;-66
2023/06/19 03:27:42;;;;;;;10.63;4.00;;;;;;;12.07;59.47;95340.81;6297659;28;20387;-65
2023/06/19 03:30:46;;;;;;;7.63;4.25;;;;;;;12.19;58.70;95332.72;6296898;28;20033;-65
2023/06/19 03:33:52;;;;;;;7.18;4.47;;;;;;;12.33;58.48;95330.41;6298008;28;20052;-65
2023/06/19 03:36:55;;;;;;;;;;;;;;;12.71;58.02;95343.47;6297037;28;20052;-66
2023/06/19 03:39:57;;;;;;;9.13;5.00;;;;;;;13.07;56.50;95332.94;6258840;28;20001;-66
2023/06/19 03:43:00;;;;;;;6.35;4.68;;;;;;;13.37;55.85;95345.75;6297463;28;20040;-65
2023/06/19 03:46:02;;;;;;;7.35;4.32;;;;;;;13.44;55.37;95344.13;6297786;28;20067;-65
2023/06/19 03:49:06;;;;;;;7.63;4.40;;;;;;;13.71;54.22;95352.91;6297695;28;20044;-65
2023/06/19 03:52:11;;;;;;;8.20;4.55;;;;;;;13.60;53.70;95353.19;6280207;28;20037;-65
2023/06/19 03:55:18;;;;;;;6.47;4.30;;;;;;;13.50;53.64;95344.50;6285307;28;20041;-66
2023/06/19 03:58:19;;;;;;;;;;;;;;;13.68;53.50;95356.69;6289378;28;20044;-65
2023/06/19 04:01:22;;;;;;;7.00;4.32;;;;;;;13.35;53.85;95355.63;6280125;28;19921;-66
2023/06/19 04:04:26;;;;;;;;;;;;;;;13.29;54.05;95358.06;6271876;28;20040;-66
2023/06/19 04:07:32;;;;;;;7.13;4.32;;;;;;;13.20;54.07;95343.94;6272462;28;19920;-67
2023/06/19 04:10:33;;;;;;;;;;;;;;;13.59;53.28;95344.41;6272322;28;20045;-66
2023/06/19 04:13:37;;;;;;;7.90;4.78;;;;;;;13.77;51.53;95336.44;6272123;28;20409;-67
2023/06/19 04:16:41;;;;;;;6.47;4.13;;;;;;;14.10;51.02;95339.25;6272306;28;20060;-66
2023/06/19 04:19:43;;;;;;;4.68;4.00;;;;;;;14.44;49.92;95333.09;6267055;28;20414;-66
2023/06/19 04:22:44;;;;;;;8.95;4.60;;;;;;;14.79;49.50;95346.09;6271775;28;20518;-65
2023/06/19 04:25:46;;;;;;;8.07;6.13;;;;;;;15.05;49.29;95331.88;6271911;28;20392;-64
2023/06/19 04:28:51;;;;;;;;;;;;;;;15.29;48.61;95338.22;6270648;28;20453;-67
2023/06/19 04:31:57;;;;;;;8.57;6.03;;;;;;;14.89;48.95;95343.31;6283572;28;19927;-67
2023/06/19 04:35:01;;;;;;;8.73;5.97;;;;;;;14.69;50.06;95337.50;6278518;28;20056;-67
2023/06/19 04:38:02;;;;;;;10.35;6.38;;;;;;;14.46;49.49;95329.25;6276243;28;20139;-67
2023/06/19 04:41:08;;;;;;;11.02;6.82;;;;;;;14.07;50.80;95342.22;6296133;28;20040;-67
2023/06/19 04:44:15;;;;;;;9.10;6.35;;;;;;;13.99;51.09;95340.34;6295945;28;20127;-67
2023/06/19 04:47:22;;;;;;;9.50;6.20;;;;;;;14.18;50.51;95338.44;6274748;28;20040;-67
2023/06/19 04:50:27;;;;;;;9.77;6.70;;;;;;;14.19;50.15;95340.94;6245515;28;20058;-67
2023/06/19 04:53:32;;;;;;;11.32;6.43;;;;;;;14.27;49.65;95343.59;6246381;28;20511;-68
2023/06/19 04:56:35;;;;;;;7.93;6.20;;;;;;;14.78;48.25;95336.50;6258600;28;20041;-66
2023/06/19 04:59:40;;;;;;;7.95;6.43;;;;;;;14.91;48.48;95349.25;6266903;28;20048;-67
2023/06/19 05:02:43;;;;;;;9.20;6.10;;;;;;;15.07;48.13;95340.50;6261070;28;20144;-67
2023/06/19 05:05:49;;;;;;;8.45;6.47;;;;;;;15.42;46.65;95349.94;6282187;28;20040;-67
2023/06/19 05:08:50;;;;;;;;;;;;;;;15.98;46.15;95338.63;6294311;28;20485;-67
2023/06/19 05:11:54;;;;;;;8.63;6.50;;;;;;;15.90;45.08;95332.31;6293963;28;20005;-67
2023/06/19 05:14:59;;;;;;;10.55;6.70;;;;;;;15.71;45.33;95346.81;6294989;28;20040;-67
2023/06/19 05:18:04;;;;;;;8.07;6.15;;;;;;;15.69;45.64;95345.31;6294793;28;20045;-66
2023/06/19 05:21:08;;;;;;;10.65;7.53;;;;;;;15.88;44.98;95344.94;6275707;28;20414;-66
2023/06/19 05:24:12;;;;;;;6.45;5.75;;;;;;;16.03;44.73;95342.41;6292508;28;20052;-67
2023/06/19 05:27:19;;;;;;;10.10;6.15;;;;;;;15.93;44.10;95347.91;6295122;28;20418;-67
2023/06/19 05:30:20;;;;;;;10.13;7.07;;;;;;;15.87;43.69;95337.16;6295034;28;20098;-67
2023/06/19 05:33:25;;;;;;;10.73;7.07;;;;;;;15.57;44.66;95334.19;6288099;28;20068;-66
2023/06/19 05:36:34;;;;;;;11.90;7.60;;;;;;;15.57;44.61;95342.16;6231024;28;20148;-67
2023/06/19 05:39:43;;;;;;;11.93;7.07;;;;;;;15.61;44.42;95334.69;6270885;28;20041;-67
2023/06/19 05:42:47;;;;;;;10.15;6.60;;;;;;;16.24;42.55;95339.19;6270233;28;20045;-67
2023/06/19 05:45:48;;;;;;;6.78;5.47;;;;;;;16.89;41.20;95327.41;6268832;28;20103;-67
2023/06/19 05:48:49;;;;;;;11.32;6.05;;;;;;;16.65;41.94;95319.59;6269051;28;20492;-68
2023/06/19 05:51:58;;;;;;;11.77;6.55;;;;;;;16.96;41.77;95333.69;6269917;28;20045;-67
2023/06/19 05:55:05;;;;;;;9.98;6.85;;;;;;;18.77;38.72;95335.41;6269499;28;20044;-66
2023/06/19 05:58:06;;;;;;;10.23;7.28;;;;;;;21.82;33.38;95333.59;6266239;28;20045;-67
2023/06/19 06:01:09;;;;;;;11.05;6.35;;;;;;;25.41;28.92;95347.13;6268985;28;20045;-67
2023/06/19 06:04:13;;;;;;;9.60;6.63;;;;;;;25.66;27.66;95343.47;6269561;28;20040;-67
2023/06/19 06:07:18;;;;;;;9.27;6.20;;;;;;;24.44;29.10;95330.16;6268924;28;20052;-66
2023/06/19 06:10:25;;;;;;;7.22;5.38;;;;;;;23.35;28.98;95332.28;6269204;28;20040;-67
2023/06/19 06:13:26;;;;;;;9.13;5.82;;;;;;;21.89;30.77;95347.81;6277619;28;20037;-66
2023/06/19 06:16:30;;;;;;;7.05;5.75;;;;;;;20.89;32.61;95338.84;6293410;28;20055;-67
2023/06/19 06:19:36;;;;;;;9.40;7.72;;;;;;;19.99;33.68;95343.28;6293931;28;20066;-67
2023/06/19 06:22:41;;;;;;;9.75;7.35;;;;;;;19.64;34.50;95337.84;6293492;28;20040;-67
2023/06/19 06:25:47;;;;;;;9.63;6.88;;;;;;;20.88;32.47;95341.69;6293439;28;20044;-66
2023/06/19 06:28:50;;;;;;;9.95;7.28;;;;;;;21.84;31.23;95338.75;6275677;28;20060;-66
2023/06/19 06:32:04;;;;;;;11.02;8.30;;;;;;;22.14;30.14;95347.19;6289223;28;20429;-66
2023/06/19 06:35:08;;;;;;;9.45;7.50;;;;;;;22.01;30.12;95342.66;6293504;28;20064;-67
2023/06/19 06:38:10;;;;;;;12.68;7.63;;;;;;;21.48;31.09;95348.00;6288899;28;20041;-68
2023/06/19 06:41:17;;;;;;;11.07;7.88;;;;;;;20.17;32.90;95351.59;6268474;28;20418;-68
2023/06/19 06:44:25;;;;;;;11.13;7.65;;;;;;;20.53;32.79;95355.13;6268432;28;20041;-67
2023/06/19 06:47:32;;;;;;;12.80;6.93;;;;;;;20.94;31.91;95352.41;6277115;28;20048;-67
2023/06/19 06:50:34;;;;;;;11.13;7.05;;;;;;;23.34;28.94;95365.53;6292255;28;20155;-67
2023/06/19 06:53:40;;;;;;;11.73;6.43;;;;;;;25.41;26.28;95374.06;6290045;28;20045;-66
2023/06/19 06:56:43;;;;;;;8.17;6.00;;;;;;;26.73;24.41;95367.56;6292788;28;20053;-66
2023/06/19 06:59:49;;;;;;;10.07;6.38;;;;;;;24.85;25.77;95367.09;6283713;28;20029;-67
2023/06/19 07:02:51;;;;;;;9.75;6.70;;;;;;;22.59;28.03;95371.41;6258693;28;20199;-67
2023/06/19 07:05:54;;;;;;;8.52;6.40;;;;;;;22.59;28.57;95376.75;6287643;28;20567;-66
2023/06/19 07:08:58;;;;;;;11.38;6.78;;;;;;;23.49;27.40;95368.72;6268618;28;20198;-67
2023/06/19 07:12:04;;;;;;;10.52;6.45;;;;;;;23.01;28.15;95379.94;6267344;28;20075;-66
2023/06/19 07:15:06;;;;;;;10.40;6.72;;;;;;;22.95;27.77;95375.41;6267636;28;20151;-66
2023/06/19 07:18:10;;;;;;;12.00;7.05;;;;;;;21.86;29.16;95388.41;6267280;28;20044;-66
2023/06/19 07:21:14;;;;;;;11.05;7.35;;;;;;;21.12;30.13;95383.09;6274400;28;20048;-67
2023/06/19 07:24:20;;;;;;;11.63;8.02;;;;;;;20.42;32.06;95381.34;6292633;28;20036;-67
2023/06/19 07:27:27;;;;;;;11.52;9.13;;;;;;;19.78;32.87;95378.84;6291930;28;20068;-67
2023/06/19 07:30:28;;;;;;;14.88;9.82;;;;;;;19.37;32.94;95381.34;6292316;28;20545;-67
2023/06/19 07:33:32;;;;;;;17.45;12.60;;;;;;;19.07;33.00;95381.44;6292776;28;20037;-66
2023/06/19 07:36:36;;;;;;;20.40;14.40;;;;;;;19.79;31.57;95393.00;6233119;28;20049;-67
2023/06/19 07:39:40;;;;;;;23.13;16.17;;;;;;;19.48;31.78;95378.16;6243664;28;20041;-67
2023/06/19 07:42:49;;;;;;;27.92;16.40;;;;;;;18.97;32.73;95383.59;6242789;28;20124;-67
2023/06/19 07:45:52;;;;;;;19.70;14.95;;;;;;;18.81;32.90;95397.94;6241704;28;20065;-66
2023/06/19 07:48:55;;;;;;;;;;;;;;;19.43;32.52;95386.72;6241774;28;20060;-66
2023/06/19 07:51:56;;;;;;;22.27;13.97;;;;;;;20.48;30.68;95386.94;6242213;28;19921;-67
2023/06/19 07:54:58;;;;;;;19.65;14.65;;;;;;;22.17;28.86;95379.75;6246958;28;20053;-67
2023/06/19 07:58:02;;;;;;;17.80;13.23;;;;;;;22.60;27.42;95389.16;6261741;28;20041;-66
2023/06/19 08:01:11;;;;;;;23.40;14.18;;;;;;;22.41;27.93;95401.56;6243183;28;20045;-66
2023/06/19 08:04:15;;;;;;;16.33;11.88;;;;;;;22.99;27.54;95404.31;6242860;28;20045;-67
2023/06/19 08:07:16;;;;;;;14.95;11.07;;;;;;;23.70;26.84;95406.00;6241842;28;20053;-67
2023/06/19 08:10:20;;;;;;;14.63;10.95;;;;;;;25.22;25.08;95412.84;6242423;28;20045;-67
2023/06/19 08:13:28;;;;;;;14.82;10.27;;;;;;;26.27;23.81;95416.91;6246820;28;20495;-66
2023/06/19 08:16:31;;;;;;;16.02;10.27;;;;;;;26.43;24.01;95425.13;6246878;28;20052;-66
2023/06/19 08:19:35;;;;;;;15.95;10.95;;;;;;;25.25;24.64;95433.91;6247087;28;20519;-67
2023/06/19 08:22:36;;;;;;;13.02;9.80;;;;;;;23.66;26.98;95414.69;6246551;28;20044;-65
2023/06/19 08:25:38;;;;;;;17.23;11.95;;;;;;;22.75;28.21;95424.56;6246300;28;20060;-66
2023/06/19 08:28:41;;;;;;;15.82;11.30;;;;;;;24.19;26.24;95415.13;6247125;28;20048;-67
2023/06/19 08:31:42;;;;;;;;;;;;;;;28.12;23.62;95434.00;6227837;28;20428;-66
2023/06/19 08:34:43;;;;;;;15.95;11.35;;;;;;;28.10;22.02;95428.00;6227308;28;19928;-67
2023/06/19 08:37:47;;;;;;;13.13;10.07;;;;;;;27.40;23.23;95422.91;6246319;28;20038;-67
2023/06/19 08:40:48;;;;;;;16.88;11.02;;;;;;;26.38;24.25;95433.13;6223768;28;20169;-67
2023/06/19 08:43:55;;;;;;;16.25;11.70;;;;;;;24.11;25.48;95423.47;6232495;28;20041;-66
2023/06/19 08:47:01;;;;;;;16.05;11.57;;;;;;;21.79;28.99;95425.03;6245915;28;20192;-66
2023/06/19 08:50:05;;;;;;;15.68;11.38;;;;;;;20.21;31.46;95428.66;6246320;28;20121;-67
2023/06/19 08:53:12;;;;;;;15.07;12.52;;;;;;;19.19;32.91;95422.59;6246012;28;20065;-66
2023/06/19 08:56:18;;;;;;;15.05;11.90;;;;;;;18.50;33.72;95427.44;6245528;28;20072;-66
2023/06/19 08:59:25;;;;;;;13.00;10.82;;;;;;;18.10;35.11;95437.50;6245096;28;20140;-66
2023/06/19 09:02:45;;;;;;;19.02;11.85;;;;;;;18.08;35.09;95427.03;6239738;28;20037;-66
2023/06/19 09:05:50;;;;;;;15.15;11.43;;;;;;;17.69;34.94;95440.47;6244494;28;20130;-67
2023/06/19 09:09:02;;;;;;;15.90;12.27;;;;;;;17.51;34.82;95443.44;6243978;28;20049;-67
2023/06/19 09:12:06;;;;;;;16.75;11.43;;;;;;;17.33;35.53;95450.91;6245158;28;20060;-67
2023/06/19 09:15:18;;;;;;;18.13;13.32;;;;;;;17.42;35.43;95460.47;6242542;28;20120;-67
2023/06/19 09:18:22;;;;;;;20.30;12.50;;;;;;;17.27;36.08;95465.72;6243242;28;20041;-67
2023/06/19 09:21:25;;;;;;;18.40;13.10;;;;;;;17.32;35.90;95471.31;6245617;28;20541;-68
2023/06/19 09:24:37;;;;;;;17.40;12.32;;;;;;;17.14;36.37;95471.59;6244493;28;20049;-66
2023/06/19 09:27:41;;;;;;;18.95;11.02;;;;;;;17.38;35.34;95475.09;6245113;28;20059;-66
2023/06/19 09:30:59;;;;;;;20.98;12.93;;;;;;;17.12;35.68;95488.72;6245649;28;20046;-66
2023/06/19 09:34:05;;;;;;;18.85;11.32;;;;;;;16.53;35.46;95492.56;6248175;28;20048;-67
2023/06/19 09:37:12;;;;;;;16.92;12.00;;;;;;;15.98;36.64;95490.66;6271416;28;20123;-64
2023/06/19 09:40:19;;;;;;;16.77;12.05;;;;;;;15.99;36.97;95492.31;6267953;28;20502;-69
2023/06/19 09:43:25;;;;;;;15.30;10.63;;;;;;;16.08;36.84;95503.75;6269712;28;20048;-68
2023/06/19 09:46:37;;;;;;;16.55;11.75;;;;;;;16.06;37.41;95506.56;6269479;28;20045;-66
2023/06/19 09:49:39;;;;;;;16.70;11.32;;;;;;;16.40;36.89;95508.19;6268464;28;20395;-69
2023/06/19 09:52:46;;;;;;;16.83;10.35;;;;;;;16.83;36.55;95504.28;6249415;28;20044;-69
2023/06/19 09:55:51;;;;;;;15.82;11.40;;;;;;;19.18;32.97;95506.25;6259882;28;20540;-69
2023/06/19 09:58:56;;;;;;;13.95;10.18;;;;;;;20.58;30.71;95513.84;6268063;28;20049;-69
2023/06/19 10:02:06;;;;;;;14.98;10.95;;;;;;;19.91;31.13;95516.94;6259461;28;20049;-66
2023/06/19 10:05:14;;;;;;;13.82;8.93;;;;;;;19.04;32.27;95523.09;6266413;28;20135;-65
2023/06/19 10:08:29;;;;;;;13.65;10.10;;;;;;;18.94;32.44;95526.06;6264837;28;20529;-67
2023/06/19 10:11:45;;;;;;;13.32;9.07;;;;;;;18.88;33.07;95525.94;6275556;28;20056;-66
2023/06/19 10:14:52;;;;;;;14.18;10.00;;;;;;;18.61;33.42;95525.53;6269189;28;20749;-64
2023/06/19 10:18:04;;;;;;;12.55;8.93;;;;;;;18.81;33.71;95528.53;6247693;28;20048;-68
2023/06/19 10:21:16;;;;;;;10.52;8.80;;;;;;;18.84;32.54;95536.97;6264425;28;20117;-68
2023/06/19 10:24:20;;;;;;;12.52;9.43;;;;;;;18.79;32.62;95534.03;6267885;28;20063;-68
2023/06/19 10:27:25;;;;;;;14.00;9.73;;;;;;;19.66;31.48;95546.66;6248719;28;20041;-68
2023/06/19 10:30:27;;;;;;;14.80;8.80;;;;;;;19.43;31.70;95535.28;6268667;28;20051;-68
2023/06/19 10:33:32;;;;;;;14.70;8.10;;;;;;;19.61;31.61;95543.69;6268148;28;20053;-68
2023/06/19 10:36:39;;;;;;;10.82;7.85;;;;;;;19.35;31.50;95548.72;6292866;28;20052;-68
2023/06/19 10:39:47;;;;;;;12.00;8.65;;;;;;;19.41;31.65;95553.31;6276150;28;20037;-68
2023/06/19 10:42:51;;;;;;;11.88;8.95;;;;;;;20.00;30.66;95552.34;6267992;28;20045;-67
2023/06/19 10:45:53;;;;;;;11.68;7.90;;;;;;;20.10;31.14;95551.03;6281018;28;20044;-67
2023/06/19 10:49:01;;;;;;;10.77;8.10;;;;;;;20.02;31.17;95555.66;6293107;28;20044;-68
2023/06/19 10:52:02;;;;;;;11.13;8.45;;;;;;;19.51;31.45;95559.19;6293238;28;20041;-68
2023/06/19 10:55:04;;;;;;;11.55;8.20;;;;;;;18.76;32.17;95558.38;6292476;28;20098;-68
2023/06/19 10:58:08;;;;;;;12.73;8.52;;;;;;;18.15;33.49;95581.56;6292373;28;20045;-67
2023/06/19 11:01:11;;;;;;;11.05;8.27;;;;;;;17.51;34.24;95577.25;6267783;28;20041;-68
2023/06/19 11:04:15;;;;;;;12.13;7.60;;;;;;;17.42;34.99;95585.44;6273435;28;20139;-68
2023/06/19 11:07:20;;;;;;;8.63;6.60;;;;;;;17.66;34.22;95585.34;6248549;28;20415;-67
2023/06/19 11:10:28;;;;;;;9.32;6.53;;;;;;;17.78;34.79;95588.44;6243137;28;20399;-68
2023/06/19 11:13:29;;;;;;;8.50;6.47;;;;;;;17.94;34.46;95593.66;6242019;28;20689;-68
2023/06/19 11:16:31;;;;;;;9.43;7.05;;;;;;;17.60;34.92;95590.50;6252468;28;20057;-69
2023/06/19 11:19:37;;;;;;;8.90;6.55;;;;;;;17.26;36.16;95594.31;6278043;28;20065;-68
2023/06/19 11:22:42;;;;;;;9.43;5.32;;;;;;;16.90;36.19;95600.09;6277501;28;20053;-69
2023/06/19 11:25:47;;;;;;;8.10;6.05;;;;;;;16.44;36.88;95594.47;6266012;28;20049;-68
2023/06/19 11:28:54;;;;;;;9.45;6.60;;;;;;;16.11;38.00;95604.25;6259007;28;20046;-69
2023/06/19 11:32:07;;;;;;;9.60;6.95;;;;;;;15.82;38.97;95620.63;6263935;28;20040;-68
2023/06/19 11:35:12;;;;;;;9.55;6.93;;;;;;;15.29;40.36;95616.47;6265499;28;20552;-68
2023/06/19 11:38:22;;;;;;;13.57;6.88;;;;;;;14.96;41.18;95614.47;6280616;28;20549;-68
2023/06/19 11:41:30;;;;;;;8.90;6.53;;;;;;;14.61;41.98;95620.72;6264963;28;20049;-68
2023/06/19 11:44:34;;;;;;;10.77;6.95;;;;;;;14.38;42.65;95621.19;6267637;28;20499;-68
2023/06/19 11:47:40;;;;;;;12.48;7.25;;;;;;;14.19;42.69;95626.63;6271321;28;20402;-68
2023/06/19 11:50:41;;;;;;;9.60;7.30;;;;;;;14.02;43.13;95630.94;6271069;28;20056;-68
2023/06/19 11:53:47;;;;;;;11.00;6.90;;;;;;;13.57;44.05;95623.06;6272959;28;20041;-68
2023/06/19 11:56:50;;;;;;;9.93;6.13;;;;;;;13.44;43.97;95626.84;6271114;28;20074;-67
2023/06/19 11:59:52;;;;;;;10.10;6.72;;;;;;;13.42;44.27;95634.13;6268843;28;20052;-68
2023/06/19 12:02:58;;;;;;;8.80;6.65;;;;;;;13.43;44.22;95625.19;6269342;28;20036;-68
2023/06/19 12:06:02;;;;;;;12.13;7.80;;;;;;;13.62;43.81;95624.28;6269912;28;20048;-67
2023/06/19 12:09:06;;;;;;;9.70;7.20;;;;;;;13.76;42.84;95625.56;6268721;28;20045;-67
2023/06/19 12:12:08;;;;;;;10.05;6.63;;;;;;;13.72;42.94;95626.84;6272242;28;20047;-68
2023/06/19 12:15:12;;;;;;;;;;;;;;;14.41;41.46;95635.06;6271958;28;20048;-67
2023/06/19 12:18:20;;;;;;;6.82;5.15;;;;;;;14.62;40.93;95630.31;6268281;28;19943;-68
2023/06/19 12:21:27;;;;;;;10.63;7.07;;;;;;;14.66;40.86;95629.00;6258928;28;20418;-69
2023/06/19 12:24:36;;;;;;;9.35;6.18;;;;;;;15.00;40.30;95641.47;6269333;28;20187;-68
2023/06/19 12:27:41;;;;;;;8.68;6.65;;;;;;;15.37;39.26;95632.38;6269861;28;20040;-69
2023/06/19 12:30:45;;;;;;;7.32;5.70;;;;;;;15.48;38.84;95640.03;6271083;28;20499;-68
2023/06/19 12:33:49;;;;;;;6.88;5.55;;;;;;;15.78;38.72;95637.84;6270748;28;20430;-68
2023/06/19 12:36:54;;;;;;;7.40;5.82;;;;;;;15.94;38.39;95635.25;6248897;28;20721;-68
2023/06/19 12:39:55;;;;;;;13.07;7.05;;;;;;;16.01;38.19;95638.88;6242076;28;20136;-68
2023/06/19 12:42:58;;;;;;;;;;;;;;;15.85;38.76;95646.81;6242363;28;20037;-68
2023/06/19 12:46:00;;;;;;;8.50;6.18;;;;;;;15.17;39.64;95642.38;6241989;28;19927;-68
2023/06/19 12:49:11;;;;;;;6.78;5.75;;;;;;;14.51;40.77;95654.34;6225626;28;20923;-68
2023/06/19 12:52:18;;;;;;;7.50;5.63;;;;;;;14.13;41.51;95643.94;6239720;28;20041;-67
2023/06/19 12:55:22;;;;;;;7.45;6.18;;;;;;;13.95;42.39;95648.38;6241656;28;20037;-68
2023/06/19 12:58:24;;;;;;;7.95;5.70;;;;;;;13.92;42.58;95646.88;6236798;28;20404;-68
2023/06/19 13:01:25;;;;;;;9.68;5.88;;;;;;;14.04;42.57;95659.88;6244150;28;20044;-67
2023/06/19 13:04:35;;;;;;;7.57;5.80;;;;;;;14.19;42.38;95657.56;6234737;28;20677;-67
2023/06/19 13:07:44;;;;;;;9.23;5.95;;;;;;;14.07;42.18;95665.72;6239253;28;20132;-68
2023/06/19 13:10:52;;;;;;;10.07;6.85;;;;;;;13.70;43.11;95663.16;6243915;28;20048;-69
2023/06/19 13:14:02;;;;;;;10.25;7.00;;;;;;;13.93;43.25;95659.13;6239990;28;20041;-67
2023/06/19 13:17:06;;;;;;;11.68;7.00;;;;;;;14.35;42.58;95658.53;6242936;28;20076;-67
2023/06/19 13:20:10;;;;;;;10.23;6.45;;;;;;;14.47;42.24;95671.53;6239025;28;20040;-68
2023/06/19 13:23:16;;;;;;;8.70;6.55;;;;;;;14.51;42.16;95670.22;6242507;28;20073;-68
2023/06/19 13:26:25;;;;;;;9.55;6.53;;;;;;;14.53;41.87;95670.94;6266623;28;20045;-69
2023/06/19 13:29:31;;;;;;;6.18;5.43;;;;;;;14.31;42.07;95667.75;6232889;28;20038;-68
2023/06/19 13:32:32;;;;;;;12.63;7.50;;;;;;;13.86;43.10;95673.91;6239977;28;20057;-68
2023/06/19 13:35:43;;;;;;;9.80;7.10;;;;;;;13.57;44.07;95666.16;6258328;28;20048;-69
2023/06/19 13:38:52;;;;;;;11.57;8.65;;;;;;;13.50;44.87;95661.59;6265912;28;20044;-68
2023/06/19 13:41:54;;;;;;;9.15;7.28;;;;;;;13.69;44.74;95667.63;6266016;28;20052;-68
2023/06/19 13:44:58;;;;;;;8.85;6.65;;;;;;;13.78;44.01;95670.34;6265392;28;20048;-68
2023/06/19 13:48:04;;;;;;;7.80;6.95;;;;;;;13.67;44.12;95674.03;6268472;28;20052;-67
2023/06/19 13:51:10;;;;;;;10.27;6.72;;;;;;;13.60;44.41;95688.81;6266783;28;20048;-68
2023/06/19 13:54:17;;;;;;;9.85;6.65;;;;;;;13.34;44.93;95684.22;6276187;28;20131;-67
2023/06/19 13:57:21;;;;;;;11.10;6.57;;;;;;;13.29;45.37;95690.91;6263514;28;20040;-69
2023/06/19 14:00:25;;;;;;;9.15;6.43;;;;;;;13.29;45.02;95688.28;6264658;28;20065;-69
2023/06/19 14:03:27;;;;;;;9.68;6.70;;;;;;;13.37;45.10;95699.78;6265750;28;20053;-71
2023/06/19 14:06:28;;;;;;;12.23;7.50;;;;;;;13.27;45.47;95698.97;6265186;28;20041;-70
2023/06/19 14:09:35;;;;;;;12.35;8.73;;;;;;;13.23;45.75;95692.28;6276179;28;20040;-70
2023/06/19 14:12:40;;;;;;;11.95;8.30;;;;;;;13.21;45.99;95688.94;6265138;28;20049;-70
2023/06/19 14:15:41;;;;;;;9.65;7.70;;;;;;;13.08;45.96;95693.72;6265586;28;20044;-72
2023/06/19 14:18:50;;;;;;;12.25;7.65;;;;;;;12.96;46.28;95696.53;6264249;28;20064;-72
2023/06/19 14:21:57;;;;;;;9.77;7.07;;;;;;;12.85;46.91;95699.34;6245382;28;20045;-72
2023/06/19 14:25:01;;;;;;;9.45;6.38;;;;;;;12.84;46.64;95681.84;6263671;28;20131;-72
2023/06/19 14:28:07;;;;;;;11.40;7.03;;;;;;;12.67;46.81;95695.75;6247454;28;20044;-71